Time;durP1;ratioP1;P1;durP2;ratioP2;P2;SDS_P1;SDS_P2;PMS_P1;PMS_P2;Temp;Humidity;BMP_temperature;BMP_pressure;BME280_temperature;BME280_humidity;BME280_pressure;Samples;Min_cycle;Max_cycle;Signal;HPM_P1;HPM_P2
2021/11/07 00:05:03;;;;;;;0.20;0.20;;;;;;;13.71;100.00;99968.94;5020460;28;20099;-75
2021/11/07 00:07:40;;;;;;;1.08;1.08;;;;;;;13.75;100.00;99978.06;5031645;28;20029;-73
2021/11/07 00:10:19;;;;;;;0.50;0.50;;;;;;;13.79;100.00;99977.53;5031074;28;20402;-73
2021/11/07 00:12:48;;;;;;;0.55;0.55;;;;;;;13.72;100.00;99967.88;5026384;28;20026;-72
2021/11/07 00:15:16;;;;;;;0.47;0.47;;;;;;;13.75;99.90;99966.50;5031725;28;20013;-75
2021/11/07 00:17:48;;;;;;;0.20;0.20;;;;;;;13.76;100.00;99976.97;5027559;28;20026;-75
2021/11/07 00:20:22;;;;;;;0.52;0.47;;;;;;;13.71;99.97;99968.94;5019451;28;20030;-76
2021/11/07 00:25:26;;;;;;;0.20;0.20;;;;;;;13.74;99.88;99965.72;5032348;28;20029;-77
2021/11/07 00:27:56;;;;;;;0.35;0.35;;;;;;;13.76;100.00;99973.50;5031531;28;20069;-73
2021/11/07 00:30:35;;;;;;;0.57;0.57;;;;;;;13.70;99.73;99955.78;5031926;28;20017;-74
2021/11/07 00:33:20;;;;;;;0.55;0.55;;;;;;;13.67;99.52;99950.94;5020291;28;20038;-74
2021/11/07 00:36:05;;;;;;;0.73;0.73;;;;;;;13.69;99.69;99962.22;5028061;28;20398;-74
2021/11/07 00:38:41;;;;;;;2.03;1.92;;;;;;;13.75;99.69;99963.81;5032365;28;20033;-76
2021/11/07 00:49:04;;;;;;;1.00;0.85;;;;;;;13.80;99.79;99971.06;5030575;28;20033;-77
2021/11/07 00:54:13;;;;;;;0.35;0.35;;;;;;;13.72;99.37;99950.91;5027136;28;20041;-74
2021/11/07 01:01:39;;;;;;;;;;;;;;;13.75;99.54;99951.16;5032404;28;20473;-79
2021/11/07 01:04:06;;;;;;;1.90;1.65;;;;;;;13.68;99.39;99941.81;5030360;28;19909;-76
2021/11/07 01:06:34;;;;;;;4.68;0.73;;;;;;;13.68;99.53;99939.91;5031529;28;20030;-76
2021/11/07 01:09:00;;;;;;;;;;;;;;;13.76;99.68;99947.41;5032302;28;20025;-76
2021/11/07 01:11:26;;;;;;;3.38;2.15;;;;;;;13.71;99.53;99942.06;5046447;28;19920;-76
2021/11/07 01:13:52;;;;;;;0.30;0.30;;;;;;;13.66;99.66;99935.88;5031528;28;20163;-76
2021/11/07 01:16:18;;;;;;;1.70;1.70;;;;;;;13.60;99.76;99929.75;5030148;28;20112;-76
2021/11/07 01:18:43;;;;;;;0.75;0.75;;;;;;;13.67;99.64;99942.88;5030537;28;20045;-73
2021/11/07 01:21:12;;;;;;;0.45;0.45;;;;;;;13.66;99.86;99941.25;5031759;28;20021;-72
2021/11/07 01:23:47;;;;;;;1.02;1.02;;;;;;;13.52;99.55;99917.66;5030905;28;20083;-75
2021/11/07 01:26:34;;;;;;;0.43;0.43;;;;;;;13.61;99.56;99942.09;5031437;28;20033;-74
2021/11/07 01:29:12;;;;;;;0.40;0.40;;;;;;;13.63;99.38;99941.81;5030264;28;20026;-73
2021/11/07 01:31:38;;;;;;;0.43;0.43;;;;;;;13.62;99.45;99946.38;5031230;28;20037;-74
2021/11/07 01:34:05;;;;;;;1.30;1.25;;;;;;;13.56;98.95;99934.88;5031473;28;20114;-73
2021/11/07 01:37:00;;;;;;;1.23;1.20;;;;;;;13.56;99.21;99936.72;5030992;28;20494;-73
2021/11/07 01:42:15;;;;;;;0.85;0.85;;;;;;;13.56;99.15;99928.66;5022530;28;20045;-72
2021/11/07 01:44:52;;;;;;;0.82;0.82;;;;;;;13.50;99.26;99919.00;5030662;28;20083;-72
2021/11/07 01:47:18;;;;;;;0.35;0.35;;;;;;;13.54;99.29;99938.91;5031113;28;20033;-72
2021/11/07 01:49:45;;;;;;;0.60;0.60;;;;;;;13.50;99.03;99927.06;5031322;28;20064;-70
2021/11/07 01:52:12;;;;;;;1.58;1.35;;;;;;;13.55;99.08;99940.50;5031274;28;20470;-76
2021/11/07 01:57:26;;;;;;;0.15;0.15;;;;;;;13.54;99.84;99947.75;5031262;28;20071;-76
2021/11/07 01:59:54;;;;;;;0.23;0.23;;;;;;;13.53;99.04;99940.78;5029041;28;20508;-76
2021/11/07 02:02:22;;;;;;;0.75;0.75;;;;;;;13.51;99.13;99934.06;5030532;28;21048;-74
2021/11/07 02:04:47;;;;;;;0.47;0.47;;;;;;;13.51;99.10;99934.06;5029301;28;20045;-75
2021/11/07 02:07:13;;;;;;;1.10;1.10;;;;;;;13.52;98.90;99943.75;5030764;28;20486;-75
2021/11/07 02:09:39;;;;;;;1.00;1.00;;;;;;;13.52;98.94;99947.22;5029556;28;20490;-72
2021/11/07 02:12:07;;;;;;;1.00;0.98;;;;;;;13.51;99.21;99948.31;5031043;28;20029;-71
2021/11/07 02:14:33;;;;;;;1.70;1.60;;;;;;;13.51;98.78;99948.31;5029978;28;20509;-73
2021/11/07 02:16:59;;;;;;;1.13;1.13;;;;;;;13.47;98.65;99957.19;5030936;28;20033;-75
2021/11/07 02:19:26;;;;;;;0.75;0.75;;;;;;;13.46;98.61;99951.00;5029984;28;20498;-73
2021/11/07 02:21:52;;;;;;;1.27;1.27;;;;;;;13.46;98.64;99948.31;5030968;28;20026;-73
2021/11/07 02:24:18;;;;;;;0.40;0.40;;;;;;;13.43;98.68;99943.50;5030461;28;20026;-74
2021/11/07 02:26:52;;;;;;;0.20;0.20;;;;;;;13.42;98.84;99939.19;5029295;28;20038;-75
2021/11/07 02:29:19;;;;;;;1.10;1.10;;;;;;;13.38;98.79;99935.47;5030826;28;20037;-73
2021/11/07 02:31:45;;;;;;;0.85;0.85;;;;;;;13.36;97.91;99929.50;5030283;28;20036;-72
2021/11/07 02:34:10;;;;;;;2.70;1.15;;;;;;;13.41;97.74;99934.91;5030653;28;20021;-73
2021/11/07 02:36:36;;;;;;;1.45;1.35;;;;;;;13.31;97.66;99919.56;5028896;28;20041;-74
2021/11/07 02:39:02;;;;;;;1.45;1.25;;;;;;;13.37;97.75;99921.16;5030407;28;20044;-75
2021/11/07 02:41:27;;;;;;;2.83;1.92;;;;;;;13.40;97.57;99917.97;5030155;28;20124;-75
2021/11/07 02:43:55;;;;;;;0.98;0.70;;;;;;;13.38;97.84;99924.72;5029347;28;20049;-81
2021/11/07 02:46:22;;;;;;;0.28;0.28;;;;;;;13.28;97.25;99920.94;5029254;28;20033;-79
2021/11/07 02:48:55;;;;;;;2.25;0.60;;;;;;;13.37;97.06;99931.91;5042211;28;20037;-78
2021/11/07 02:51:30;;;;;;;1.38;0.90;;;;;;;13.38;97.25;99925.50;5027086;28;20087;-80
2021/11/07 02:53:56;;;;;;;1.15;1.15;;;;;;;13.36;97.03;99921.44;5025744;28;20033;-78
2021/11/07 02:56:22;;;;;;;0.57;0.57;;;;;;;13.33;97.73;99920.13;5028685;28;20124;-73
2021/11/07 02:58:48;;;;;;;0.52;0.52;;;;;;;13.39;97.52;99934.34;5030533;28;20029;-73
2021/11/07 03:01:18;;;;;;;0.17;0.17;;;;;;;13.33;97.07;99912.06;5030287;28;20055;-74
2021/11/07 03:03:43;;;;;;;1.15;1.05;;;;;;;13.39;96.77;99920.91;5028661;28;20029;-76
2021/11/07 03:06:09;;;;;;;0.47;0.47;;;;;;;13.41;96.57;99926.84;5030042;28;20379;-77
2021/11/07 03:08:40;;;;;;;1.60;1.35;;;;;;;13.41;96.40;99924.94;5029961;28;20026;-75
2021/11/07 03:11:06;;;;;;;0.10;0.10;;;;;;;13.34;96.70;99920.91;5030519;28;20056;-75
2021/11/07 03:13:32;;;;;;;0.00;0.00;;;;;;;13.33;96.55;99919.28;5029430;28;20076;-75
2021/11/07 03:16:08;;;;;;;2.08;1.05;;;;;;;13.30;95.61;99915.28;5029128;28;20021;-75
2021/11/07 03:18:35;;;;;;;0.47;0.47;;;;;;;13.40;95.42;99925.22;5029959;28;20120;-75
2021/11/07 03:21:03;;;;;;;0.50;0.50;;;;;;;13.40;95.22;99928.72;5030545;28;20387;-75
2021/11/07 03:23:29;;;;;;;1.55;1.13;;;;;;;13.40;94.77;99934.09;5033337;28;20033;-74
2021/11/07 03:26:14;;;;;;;0.40;0.40;;;;;;;13.41;94.72;99937.59;5033832;28;20036;-72
2021/11/07 03:28:42;;;;;;;1.25;1.25;;;;;;;13.35;94.79;99922.53;5033993;28;20043;-72
2021/11/07 03:33:41;;;;;;;0.10;0.10;;;;;;;13.37;93.76;99933.81;5032942;28;20449;-72
2021/11/07 03:36:07;;;;;;;1.13;0.77;;;;;;;13.36;93.50;99932.19;5033360;28;20025;-73
2021/11/07 03:38:34;;;;;;;0.28;0.28;;;;;;;13.35;93.54;99931.38;5033239;28;20127;-75
2021/11/07 03:41:00;;;;;;;0.68;0.47;;;;;;;13.38;93.69;99930.88;5033272;28;20033;-75
2021/11/07 03:43:28;;;;;;;1.30;1.20;;;;;;;13.32;93.73;99926.56;5033164;28;20226;-75
2021/11/07 03:45:56;;;;;;;4.20;1.03;;;;;;;13.35;93.96;99930.59;5033019;28;20080;-75
2021/11/07 03:48:22;;;;;;;1.20;1.15;;;;;;;13.33;94.67;99917.44;5032276;28;20347;-74
2021/11/07 03:50:48;;;;;;;0.38;0.38;;;;;;;13.41;95.17;99932.22;5031915;28;20479;-74
2021/11/07 03:53:13;;;;;;;0.75;0.75;;;;;;;13.45;94.97;99933.25;5032643;28;20097;-74
2021/11/07 03:55:39;;;;;;;0.70;0.70;;;;;;;13.47;95.44;99925.75;5031794;28;20025;-74
2021/11/07 03:58:05;;;;;;;2.15;1.95;;;;;;;13.43;95.51;99922.00;5033244;28;20026;-73
2021/11/07 04:00:30;;;;;;;0.88;0.88;;;;;;;13.47;95.75;99933.81;5032796;28;20111;-75
2021/11/07 04:02:57;;;;;;;1.23;0.70;;;;;;;13.44;95.51;99924.41;5032667;28;20029;-73
2021/11/07 04:05:24;;;;;;;0.57;0.38;;;;;;;13.32;95.39;99906.94;5033096;28;20506;-74
2021/11/07 04:07:49;;;;;;;0.45;0.45;;;;;;;13.48;95.53;99938.09;5031442;28;20064;-73
2021/11/07 04:10:15;;;;;;;0.32;0.32;;;;;;;13.49;95.74;99934.34;5032729;28;20057;-73
2021/11/07 04:12:42;;;;;;;3.30;1.02;;;;;;;13.51;96.10;99936.75;5032006;28;20104;-73
2021/11/07 04:15:08;;;;;;;0.10;0.10;;;;;;;13.46;95.67;99926.81;5032886;28;20112;-76
2021/11/07 04:17:34;;;;;;;3.40;0.68;;;;;;;13.50;95.92;99927.06;5032367;28;20040;-73
2021/11/07 04:20:00;;;;;;;0.47;0.47;;;;;;;13.43;95.90;99919.31;5032910;28;20029;-74
2021/11/07 04:22:25;;;;;;;1.67;1.17;;;;;;;13.46;95.96;99932.19;5032359;28;20482;-76
2021/11/07 04:24:51;;;;;;;0.20;0.20;;;;;;;13.36;95.96;99913.41;5032097;28;20044;-74
2021/11/07 04:27:17;;;;;;;0.30;0.30;;;;;;;13.44;95.85;99931.69;5032256;28;20109;-74
2021/11/07 04:29:42;;;;;;;0.32;0.32;;;;;;;13.35;95.88;99919.84;5032224;28;20029;-73
2021/11/07 04:32:08;;;;;;;0.68;0.68;;;;;;;13.42;96.00;99934.63;5031577;28;20029;-73
2021/11/07 04:34:34;;;;;;;0.30;0.30;;;;;;;13.33;96.06;99917.44;5031949;28;20036;-74
2021/11/07 04:36:59;;;;;;;0.40;0.40;;;;;;;13.41;96.02;99929.53;5032638;28;20033;-73
2021/11/07 04:39:26;;;;;;;0.10;0.10;;;;;;;13.34;96.12;99924.41;5029704;28;20029;-74
2021/11/07 04:41:51;;;;;;;0.20;0.20;;;;;;;13.35;96.01;99922.53;5027750;28;20025;-74
2021/11/07 04:44:17;;;;;;;2.13;0.65;;;;;;;13.45;96.01;99944.84;5026744;28;20040;-73
2021/11/07 04:46:43;;;;;;;0.00;0.00;;;;;;;13.41;95.44;99934.91;5029436;28;20398;-76
2021/11/07 04:49:08;;;;;;;0.80;0.80;;;;;;;13.43;95.08;99935.44;5032075;28;20498;-74
2021/11/07 04:51:33;;;;;;;0.30;0.30;;;;;;;13.43;94.90;99932.75;5050140;28;20035;-74
2021/11/07 04:53:59;;;;;;;0.10;0.10;;;;;;;13.45;95.22;99944.00;5031152;28;20040;-76
2021/11/07 04:56:25;;;;;;;0.45;0.45;;;;;;;13.45;95.36;99935.94;5031839;28;20036;-76
2021/11/07 04:58:51;;;;;;;0.55;0.45;;;;;;;13.42;95.06;99929.25;5030652;28;20037;-77
2021/11/07 05:01:16;;;;;;;0.20;0.20;;;;;;;13.35;95.10;99917.16;5030391;28;20025;-74
2021/11/07 05:03:42;;;;;;;0.43;0.43;;;;;;;13.37;95.22;99928.44;5029954;28;20025;-73
2021/11/07 05:06:08;;;;;;;0.45;0.45;;;;;;;13.38;94.97;99935.47;5032065;28;20053;-75
2021/11/07 05:08:33;;;;;;;0.95;0.95;;;;;;;13.30;94.97;99931.41;5030035;28;20025;-76
2021/11/07 05:10:59;;;;;;;1.02;1.02;;;;;;;13.32;94.99;99944.56;5030673;28;20528;-74
2021/11/07 05:13:25;;;;;;;2.17;1.85;;;;;;;13.26;94.83;99941.09;5031137;28;20028;-74
2021/11/07 05:15:51;;;;;;;0.68;0.68;;;;;;;13.20;93.97;99931.44;5030867;28;20037;-73
2021/11/07 05:18:18;;;;;;;0.63;0.63;;;;;;;13.11;93.90;99937.34;5031501;28;20021;-74
2021/11/07 05:20:45;;;;;;;0.37;0.37;;;;;;;13.18;93.88;99950.47;5031289;28;20490;-74
2021/11/07 05:23:11;;;;;;;2.17;2.08;;;;;;;13.15;94.08;99948.34;5030039;28;20272;-71
2021/11/07 05:25:37;;;;;;;0.65;0.65;;;;;;;13.08;94.38;99942.44;5031221;28;20410;-73
2021/11/07 05:28:02;;;;;;;0.50;0.50;;;;;;;13.09;94.90;99955.59;5030287;28;20071;-74
2021/11/07 05:30:28;;;;;;;1.73;1.73;;;;;;;13.12;95.24;99959.63;5031378;28;20139;-74
2021/11/07 05:32:54;;;;;;;1.27;0.65;;;;;;;13.15;95.27;99964.47;5030682;28;20110;-74
2021/11/07 05:35:20;;;;;;;0.10;0.10;;;;;;;13.09;95.65;99952.13;5030936;28;20104;-73
2021/11/07 05:37:47;;;;;;;0.70;0.70;;;;;;;13.20;95.78;99963.66;5031076;28;20065;-74
2021/11/07 05:40:13;;;;;;;0.45;0.45;;;;;;;13.18;95.62;99957.75;5029802;28;20029;-72
2021/11/07 05:42:38;;;;;;;0.55;0.52;;;;;;;13.24;95.61;99973.59;5030347;28;20046;-73
2021/11/07 05:45:05;;;;;;;0.50;0.50;;;;;;;13.20;95.38;99956.41;5028815;28;20637;-77
2021/11/07 05:47:30;;;;;;;0.32;0.32;;;;;;;13.26;95.60;99962.56;5029804;28;20053;-73
2021/11/07 05:49:56;;;;;;;0.20;0.20;;;;;;;13.29;95.33;99968.22;5031096;28;20534;-76
2021/11/07 05:52:21;;;;;;;0.85;0.47;;;;;;;13.27;95.33;99958.81;5029880;28;20482;-75
2021/11/07 05:54:47;;;;;;;6.40;0.65;;;;;;;13.33;95.46;99970.34;5030326;28;20498;-75
2021/11/07 05:57:13;;;;;;;0.20;0.20;;;;;;;13.33;95.15;99970.34;5030882;28;20498;-74
2021/11/07 05:59:39;;;;;;;2.08;1.17;;;;;;;13.35;95.47;99969.00;5029861;28;20441;-76
2021/11/07 06:02:06;;;;;;;0.95;0.95;;;;;;;13.33;94.94;99970.34;5030870;28;20033;-74
2021/11/07 06:04:31;;;;;;;2.00;1.35;;;;;;;13.27;94.82;99966.88;5029195;28;20036;-74
2021/11/07 06:06:57;;;;;;;1.45;1.45;;;;;;;13.25;95.04;99972.50;5029555;28;20503;-73
2021/11/07 06:09:22;;;;;;;1.55;1.27;;;;;;;13.23;95.23;99968.47;5030534;28;20025;-73
2021/11/07 06:11:48;;;;;;;1.20;1.20;;;;;;;13.30;95.11;99985.13;5045626;28;20040;-79
2021/11/07 06:14:14;;;;;;;1.25;1.25;;;;;;;13.28;95.29;99979.22;5029628;28;20036;-77
2021/11/07 06:16:40;;;;;;;1.75;1.65;;;;;;;13.22;94.79;99962.31;5030339;28;20056;-77
2021/11/07 06:19:06;;;;;;;0.10;0.10;;;;;;;13.26;94.88;99976.78;5029614;28;20627;-76
2021/11/07 06:21:33;;;;;;;0.65;0.65;;;;;;;13.24;95.01;99968.22;5029219;28;20030;-77
2021/11/07 06:23:58;;;;;;;0.30;0.30;;;;;;;13.22;95.48;99962.31;5043271;28;20048;-76
2021/11/07 06:26:24;;;;;;;0.85;0.85;;;;;;;13.22;95.67;99966.84;5028845;28;20502;-75
2021/11/07 06:28:52;;;;;;;1.38;0.55;;;;;;;13.15;96.12;99963.69;5030325;28;20029;-75
2021/11/07 06:31:21;;;;;;;0.70;0.70;;;;;;;13.13;96.50;99970.13;5045801;28;20060;-75
2021/11/07 06:33:46;;;;;;;0.65;0.65;;;;;;;13.11;96.39;99964.19;5029310;28;20025;-74
2021/11/07 06:36:12;;;;;;;1.35;1.25;;;;;;;13.06;96.31;99966.91;5045905;28;20036;-74
2021/11/07 06:38:37;;;;;;;0.20;0.20;;;;;;;13.06;96.68;99969.59;5029619;28;20466;-74
2021/11/07 06:41:03;;;;;;;0.47;0.47;;;;;;;13.01;96.47;99974.13;5030327;28;20083;-75
2021/11/07 06:43:29;;;;;;;0.75;0.75;;;;;;;13.05;96.65;99978.72;5030618;28;20398;-74
2021/11/07 06:45:54;;;;;;;0.75;0.75;;;;;;;13.07;96.87;99979.25;5030482;28;20049;-76
2021/11/07 06:48:20;;;;;;;0.93;0.93;;;;;;;13.05;96.52;99970.66;5029302;28;20061;-71
2021/11/07 06:50:46;;;;;;;3.63;3.42;;;;;;;13.03;96.79;99962.06;5030287;28;20552;-72
2021/11/07 06:53:11;;;;;;;2.13;1.92;;;;;;;13.09;96.75;99974.41;5045262;28;20059;-72
2021/11/07 06:55:37;;;;;;;0.60;0.60;;;;;;;13.07;96.82;99971.19;5030134;28;20025;-72
2021/11/07 06:58:02;;;;;;;0.80;0.80;;;;;;;13.06;96.93;99960.69;5033988;28;20354;-75
2021/11/07 07:00:28;;;;;;;0.70;0.70;;;;;;;13.11;96.60;99968.78;5032668;28;20025;-73
2021/11/07 07:02:54;;;;;;;2.47;1.42;;;;;;;13.06;96.82;99960.69;5032879;28;20422;-73
2021/11/07 07:05:20;;;;;;;5.57;1.58;;;;;;;13.07;96.82;99949.72;5033738;28;20440;-73
2021/11/07 07:07:51;;;;;;;4.30;1.95;;;;;;;13.03;96.71;99947.84;5033634;28;20037;-75
2021/11/07 07:10:26;;;;;;;0.85;0.85;;;;;;;13.06;96.59;99956.16;5033608;28;20112;-72
2021/11/07 07:15:25;;;;;;;3.05;2.08;;;;;;;13.00;97.52;99967.97;5033995;28;20492;-74
2021/11/07 07:30:32;;;;;;;0.80;0.80;;;;;;;13.06;97.16;99949.97;5033484;28;20030;-72
2021/11/07 07:35:29;;;;;;;1.35;0.77;;;;;;;13.04;97.22;99954.81;5033646;28;20516;-75
2021/11/07 07:37:56;;;;;;;0.10;0.10;;;;;;;13.09;97.26;99952.91;5033566;28;20108;-75
2021/11/07 07:40:24;;;;;;;0.52;0.52;;;;;;;13.13;97.15;99955.88;5033639;28;20028;-76
2021/11/07 07:42:50;;;;;;;0.90;0.55;;;;;;;13.15;97.36;99952.94;5033159;28;20060;-75
2021/11/07 07:45:16;;;;;;;1.25;1.05;;;;;;;13.09;97.53;99938.69;5033648;28;20033;-76
2021/11/07 07:47:43;;;;;;;0.00;0.00;;;;;;;13.24;97.58;99948.59;5031954;28;20516;-75
2021/11/07 07:50:11;;;;;;;0.38;0.38;;;;;;;13.23;97.03;99939.75;5033416;28;20059;-74
2021/11/07 07:52:37;;;;;;;0.00;0.00;;;;;;;13.25;97.25;99948.31;5033474;28;20521;-76
2021/11/07 07:55:05;;;;;;;2.70;2.50;;;;;;;13.22;97.35;99948.88;5033094;28;20029;-75
2021/11/07 07:57:30;;;;;;;0.85;0.85;;;;;;;13.17;97.41;99934.66;5032077;28;20117;-76
2021/11/07 07:59:56;;;;;;;1.00;1.00;;;;;;;13.22;97.22;99938.13;5031446;28;20030;-76
2021/11/07 08:02:21;;;;;;;2.17;1.52;;;;;;;13.26;97.49;99944.56;5031555;28;20032;-75
2021/11/07 08:04:47;;;;;;;4.60;0.63;;;;;;;13.28;97.56;99945.09;5032729;28;20117;-75
2021/11/07 08:07:12;;;;;;;1.38;1.27;;;;;;;13.27;97.15;99948.88;5032818;28;20032;-74
2021/11/07 08:09:37;;;;;;;2.25;2.05;;;;;;;13.31;97.23;99957.19;5033115;28;20030;-74
2021/11/07 08:12:03;;;;;;;1.10;1.00;;;;;;;13.26;97.49;99939.19;5032797;28;20033;-75
2021/11/07 08:14:28;;;;;;;0.50;0.50;;;;;;;13.28;96.85;99941.59;5033026;28;20037;-75
2021/11/07 08:16:54;;;;;;;3.15;1.60;;;;;;;13.31;96.87;99946.44;5031369;28;20032;-76
2021/11/07 08:19:19;;;;;;;0.80;0.80;;;;;;;13.20;96.95;99931.44;5031712;28;20025;-75
2021/11/07 08:21:45;;;;;;;1.85;1.75;;;;;;;13.23;97.11;99939.75;5032650;28;20026;-74
2021/11/07 08:24:13;;;;;;;0.70;0.68;;;;;;;13.13;97.20;99926.31;5032872;28;20040;-75
2021/11/07 08:26:42;;;;;;;0.60;0.60;;;;;;;13.18;97.53;99931.69;5031059;28;20056;-77
2021/11/07 08:29:11;;;;;;;1.25;1.25;;;;;;;13.18;97.45;99936.25;5031542;28;20053;-75
2021/11/07 08:31:38;;;;;;;0.65;0.65;;;;;;;13.16;97.29;99927.66;5033013;28;20030;-74
2021/11/07 08:34:05;;;;;;;1.98;1.88;;;;;;;13.17;97.64;99930.09;5032468;28;20064;-73
2021/11/07 08:36:39;;;;;;;0.97;0.97;;;;;;;13.12;97.32;99928.22;5030994;28;20132;-77
2021/11/07 08:39:12;;;;;;;1.42;1.27;;;;;;;13.17;96.98;99938.16;5032234;28;20079;-76
2021/11/07 08:41:46;;;;;;;0.50;0.50;;;;;;;13.13;97.16;99921.78;5032151;28;20047;-77
2021/11/07 09:00:30;;;;;;;0.40;0.40;;;;;;;13.33;95.83;99908.56;5032295;28;20040;-77
2021/11/07 09:03:17;;;;;;;0.50;0.40;;;;;;;13.35;95.21;99915.25;5031915;28;20029;-76
2021/11/07 09:05:57;;;;;;;0.73;0.73;;;;;;;13.37;96.32;99907.75;5030923;28;20032;-78
2021/11/07 09:08:26;;;;;;;1.20;1.20;;;;;;;13.39;95.38;99907.50;5030728;28;20030;-77
2021/11/07 09:10:52;;;;;;;0.65;0.65;;;;;;;13.44;95.19;99902.13;5030474;28;20032;-76
2021/11/07 09:13:18;;;;;;;0.10;0.10;;;;;;;13.49;94.82;99903.97;5030321;28;20550;-73
2021/11/07 09:15:50;;;;;;;0.75;0.70;;;;;;;13.51;94.79;99902.63;5031781;28;20112;-78
2021/11/07 09:18:17;;;;;;;0.73;0.73;;;;;;;13.54;94.86;99895.91;5029960;28;20126;-77
2021/11/07 09:20:59;;;;;;;0.80;0.80;;;;;;;13.59;94.65;99890.50;5030122;28;20032;-75
2021/11/07 09:28:45;;;;;;;0.45;0.45;;;;;;;13.74;93.66;99873.50;5031632;28;19913;-76
2021/11/07 09:36:30;;;;;;;0.25;0.25;;;;;;;13.69;93.71;99870.84;5031430;28;20052;-77
2021/11/07 09:44:27;;;;;;;1.13;1.05;;;;;;;13.65;93.21;99859.84;5008111;28;20045;-76
2021/11/07 09:46:59;;;;;;;0.53;0.53;;;;;;;13.59;93.40;99840.22;5029823;28;20061;-74
2021/11/07 09:49:28;;;;;;;0.47;0.47;;;;;;;13.66;92.58;99841.81;5028779;28;20025;-78
2021/11/07 09:52:04;;;;;;;0.10;0.10;;;;;;;13.66;92.61;99845.31;5018199;28;20395;-76
2021/11/07 09:54:31;;;;;;;1.27;1.17;;;;;;;13.72;92.92;99840.69;5028017;28;20025;-79
2021/11/07 09:56:58;;;;;;;0.20;0.20;;;;;;;13.78;92.74;99845.00;5025926;28;20561;-74
2021/11/07 09:59:26;;;;;;;0.40;0.40;;;;;;;13.76;92.02;99839.09;5029763;28;20072;-77
2021/11/07 10:02:00;;;;;;;0.10;0.10;;;;;;;13.75;91.90;99834.78;5015540;28;20061;-79
2021/11/07 10:04:36;;;;;;;0.20;0.20;;;;;;;13.72;92.19;99829.94;5010016;28;20478;-77
2021/11/07 10:07:22;;;;;;;0.03;0.03;;;;;;;13.82;92.30;99826.41;5009801;28;20040;-77
2021/11/07 10:09:57;;;;;;;0.10;0.10;;;;;;;13.88;91.72;99822.63;5011248;28;20542;-77
2021/11/07 10:12:35;;;;;;;0.20;0.20;;;;;;;13.80;91.66;99801.69;5010064;28;20029;-73
2021/11/07 10:15:05;;;;;;;0.93;0.65;;;;;;;13.86;91.39;99814.81;5011030;28;20036;-74
2021/11/07 10:17:53;;;;;;;0.52;0.52;;;;;;;13.84;91.35;99806.25;5023900;28;20053;-74
2021/11/07 10:20:31;;;;;;;1.23;1.10;;;;;;;13.84;91.48;99803.56;5028621;28;20033;-75
2021/11/07 10:23:02;;;;;;;0.40;0.40;;;;;;;13.76;91.46;99791.50;5029391;28;20494;-74
2021/11/07 10:28:33;;;;;;;0.57;0.57;;;;;;;13.79;91.56;99792.81;5030939;28;20021;-75
2021/11/07 10:31:02;;;;;;;0.05;0.05;;;;;;;13.81;91.77;99785.28;5031436;28;20473;-74
2021/11/07 10:42:10;;;;;;;0.00;0.00;;;;;;;13.79;91.63;99762.44;5036936;28;20037;-87
2021/11/07 10:52:37;;;;;;;0.30;0.30;;;;;;;13.84;92.50;99754.34;5038461;28;20068;-83
2021/11/07 10:55:14;;;;;;;0.15;0.15;;;;;;;13.88;92.29;99742.75;5051602;28;20483;-82
2021/11/07 10:57:44;;;;;;;0.08;0.08;;;;;;;13.91;92.05;99739.53;5036038;28;20095;-87
2021/11/07 11:00:36;;;;;;;0.80;0.68;;;;;;;13.91;91.28;99723.38;5051046;28;20037;-85
2021/11/07 11:03:01;;;;;;;0.00;0.00;;;;;;;13.99;91.51;99724.66;5052557;28;20029;-86
2021/11/07 11:05:37;;;;;;;0.75;0.75;;;;;;;13.98;91.39;99723.03;5034269;28;20387;-85
2021/11/07 11:08:22;;;;;;;0.68;0.68;;;;;;;14.06;91.26;99717.06;5033575;28;20032;-86
2021/11/07 11:10:59;;;;;;;0.35;0.35;;;;;;;14.07;91.00;99712.47;5033609;28;20418;-82
2021/11/07 11:13:57;;;;;;;0.10;0.10;;;;;;;14.07;91.33;99702.53;5049591;28;20017;-88
2021/11/07 11:22:08;;;;;;;0.52;0.52;;;;;;;14.17;90.83;99693.56;5034420;28;20064;-88
2021/11/07 11:35:37;;;;;;;0.00;0.00;;;;;;;14.31;90.40;99684.84;5033532;28;20021;-80
2021/11/07 11:45:28;;;;;;;0.00;0.00;;;;;;;14.27;90.34;99664.94;5033643;28;20060;-76
2021/11/07 11:54:09;;;;;;;0.10;0.10;;;;;;;14.27;90.23;99648.81;5033486;28;20041;-77
2021/11/07 12:01:30;;;;;;;0.45;0.45;;;;;;;14.25;89.43;99628.38;5013500;28;20026;-83
2021/11/07 12:04:11;;;;;;;0.10;0.10;;;;;;;14.22;89.69;99625.44;5012526;28;20037;-81
2021/11/07 12:09:26;;;;;;;0.32;0.32;;;;;;;14.17;90.07;99618.25;5014744;28;20518;-75
2021/11/07 12:12:02;;;;;;;0.00;0.00;;;;;;;14.17;90.39;99617.44;5013144;28;20034;-78
2021/11/07 12:14:40;;;;;;;0.20;0.20;;;;;;;14.08;90.12;99604.59;5012137;28;20040;-76
2021/11/07 12:17:08;;;;;;;0.00;0.00;;;;;;;14.20;90.55;99628.44;5021012;28;20104;-77
2021/11/07 12:19:42;;;;;;;0.28;0.28;;;;;;;14.19;90.35;99612.59;5031027;28;20021;-76
2021/11/07 12:22:16;;;;;;;0.00;0.00;;;;;;;14.21;90.43;99605.81;5031196;28;20421;-75
2021/11/07 12:24:47;;;;;;;0.43;0.43;;;;;;;14.33;89.90;99610.00;5032839;28;20032;-75
2021/11/07 12:27:17;;;;;;;0.00;0.00;;;;;;;14.35;89.71;99613.22;5029252;28;20044;-77
2021/11/07 12:29:44;;;;;;;0.00;0.00;;;;;;;14.39;89.80;99608.84;5011008;28;20487;-78
2021/11/07 12:32:11;;;;;;;0.03;0.03;;;;;;;14.37;89.31;99598.38;5010734;28;20617;-77
2021/11/07 12:35:08;;;;;;;0.30;0.30;;;;;;;14.40;89.22;99597.00;5018883;28;20019;-78
2021/11/07 12:40:48;;;;;;;0.00;0.00;;;;;;;14.41;89.42;99593.22;5012068;28;20044;-77
2021/11/07 12:43:36;;;;;;;0.08;0.08;;;;;;;14.40;89.49;99587.06;5030434;28;20076;-77
2021/11/07 12:48:54;;;;;;;0.10;0.10;;;;;;;14.40;89.19;99591.63;5030377;28;20080;-77
2021/11/07 12:51:42;;;;;;;0.00;0.00;;;;;;;14.41;88.91;99588.66;5031458;28;20454;-80
2021/11/07 12:54:23;;;;;;;0.70;0.32;;;;;;;14.41;88.82;99595.91;5030081;28;20475;-80
2021/11/07 12:56:52;;;;;;;0.65;0.55;;;;;;;14.38;88.73;99585.75;5031023;28;20033;-79
2021/11/07 12:59:30;;;;;;;0.00;0.00;;;;;;;14.36;89.06;99585.22;5030820;28;20092;-79
2021/11/07 13:01:55;;;;;;;0.50;0.50;;;;;;;14.35;89.62;99578.22;5030878;28;20112;-79
2021/11/07 13:04:22;;;;;;;0.05;0.05;;;;;;;14.31;89.10;99582.59;5030525;28;20560;-80
2021/11/07 13:06:54;;;;;;;0.10;0.10;;;;;;;14.27;89.24;99574.31;5030865;28;20087;-80
2021/11/07 13:09:24;;;;;;;0.20;0.20;;;;;;;14.23;89.31;99576.75;5026775;28;20041;-77
2021/11/07 13:11:55;;;;;;;0.30;0.30;;;;;;;14.25;89.26;99585.31;5016607;28;20486;-77
2021/11/07 13:14:45;;;;;;;0.10;0.10;;;;;;;14.25;89.63;99579.94;5012993;28;20053;-78
2021/11/07 13:19:58;;;;;;;0.10;0.10;;;;;;;14.18;89.66;99567.94;5029428;28;20034;-75
2021/11/07 13:25:42;;;;;;;0.45;0.45;;;;;;;14.20;89.84;99571.16;5006142;28;20049;-76
2021/11/07 13:28:56;;;;;;;0.95;0.95;;;;;;;14.21;89.79;99578.13;5012987;28;20095;-77
2021/11/07 13:31:16;;;;;;;0.45;0.43;;;;;;;14.13;89.94;99558.03;5009235;28;20041;-76
2021/11/07 13:33:42;;;;;;;0.20;0.20;;;;;;;14.14;90.15;99561.53;5011238;28;20030;-75
2021/11/07 13:36:14;;;;;;;1.25;0.80;;;;;;;14.08;90.24;99550.03;5010755;28;20030;-74
2021/11/07 13:38:52;;;;;;;0.13;0.13;;;;;;;14.11;90.13;99554.03;5010962;28;20483;-74
2021/11/07 13:41:25;;;;;;;0.43;0.32;;;;;;;14.06;90.29;99544.13;5010721;28;20034;-74
2021/11/07 13:44:06;;;;;;;0.10;0.10;;;;;;;14.02;90.90;99535.03;5011140;28;20073;-74
2021/11/07 13:46:35;;;;;;;0.20;0.20;;;;;;;14.11;90.90;99546.78;5011021;28;20760;-74
2021/11/07 13:49:04;;;;;;;0.05;0.05;;;;;;;14.09;90.74;99540.88;5010768;28;20032;-74
2021/11/07 13:51:31;;;;;;;0.00;0.00;;;;;;;14.19;90.76;99542.66;5010876;28;20105;-75
2021/11/07 13:54:03;;;;;;;0.35;0.35;;;;;;;14.14;90.93;99527.38;5010567;28;20057;-74
2021/11/07 13:56:31;;;;;;;0.10;0.10;;;;;;;14.19;90.29;99537.25;5011622;28;20371;-79
2021/11/07 13:58:56;;;;;;;0.00;0.00;;;;;;;14.24;90.44;99540.69;5010161;28;20038;-75
2021/11/07 14:01:22;;;;;;;0.20;0.20;;;;;;;14.25;90.21;99538.81;5016438;28;20036;-76
2021/11/07 14:03:56;;;;;;;0.10;0.10;;;;;;;14.25;90.02;99544.97;5020539;28;20025;-80
2021/11/07 14:06:42;;;;;;;0.17;0.17;;;;;;;14.22;90.29;99539.38;5009659;28;20089;-77
2021/11/07 14:09:09;;;;;;;0.73;0.73;;;;;;;14.16;90.44;99525.19;5028684;28;20115;-77
2021/11/07 14:11:37;;;;;;;0.10;0.10;;;;;;;14.23;90.26;99531.03;5030692;28;20030;-79
2021/11/07 14:14:07;;;;;;;7.30;0.77;;;;;;;14.28;90.52;99524.78;5030301;28;20040;-76